Terminal Aerodrome Forecast
Issued by NWS

Home | Current Version | Previous Version | Graphics & Text | Print | Product List | Glossary On
Versions: 1 2 3 4 5 6 7 8 9 10 11 12
000
FTUS43 KICT 261729
TAFHUT
TAF
KHUT 261729Z 2618/2718 35014KT 5SM -DZ BR BKN007 OVC015
     FM262100 35015KT P6SM BKN008 OVC015
     FM270100 33012KT P6SM VCSH SCT008 BKN015
     FM270600 33015KT P6SM SCT020 BKN035
     FM270900 32015G20KT P6SM SCT020 BKN150=

USA.gov is the U.S. government's official web portal to all federal, state and local government web resources and services.